Time;durP1;ratioP1;P1;durP2;ratioP2;P2;SDS_P1;SDS_P2;PMS_P1;PMS_P2;Temp;Humidity;BMP_temperature;BMP_pressure;BME280_temperature;BME280_humidity;BME280_pressure;Samples;Min_cycle;Max_cycle;Signal;HPM_P1;HPM_P2
2022/10/25 00:01:57;;;;;;;1.23;0.83;;;16.10;91.20;;;;;;5030723;28;21029;-49
2022/10/25 00:04:26;;;;;;;1.93;0.77;;;16.10;91.20;;;;;;5029327;28;20468;-49
2022/10/25 00:06:55;;;;;;;2.00;0.87;;;16.10;91.20;;;;;;5017584;28;20436;-49
2022/10/25 00:09:23;;;;;;;1.47;0.80;;;16.10;91.20;;;;;;5025870;28;20432;-49
2022/10/25 00:11:52;;;;;;;1.00;0.70;;;16.10;91.20;;;;;;5020070;28;21027;-49
2022/10/25 00:14:22;;;;;;;1.10;1.00;;;16.10;91.20;;;;;;5010173;28;20456;-49
2022/10/25 00:16:51;;;;;;;2.70;0.90;;;16.10;91.20;;;;;;5024671;28;20448;-49
2022/10/25 00:19:19;;;;;;;1.03;0.93;;;16.10;91.20;;;;;;5016771;28;20441;-49
2022/10/25 00:21:48;;;;;;;2.70;0.80;;;16.10;91.20;;;;;;5019998;28;20842;-49
2022/10/25 00:24:17;;;;;;;1.33;0.97;;;16.10;91.20;;;;;;5029596;28;20486;-49
2022/10/25 00:26:45;;;;;;;1.53;0.90;;;16.10;91.20;;;;;;5031066;28;20447;-50
2022/10/25 00:29:14;;;;;;;2.13;1.50;;;16.10;91.20;;;;;;5028511;28;20472;-49
2022/10/25 00:31:44;;;;;;;1.60;0.67;;;16.10;91.20;;;;;;5027857;28;20464;-49
2022/10/25 00:34:13;;;;;;;1.23;0.90;;;16.10;91.20;;;;;;5029970;28;20791;-49
2022/10/25 00:36:41;;;;;;;1.33;0.70;;;16.10;91.20;;;;;;5017200;28;20433;-49
2022/10/25 00:39:10;;;;;;;1.90;0.90;;;16.10;91.20;;;;;;5022709;28;20444;-49
2022/10/25 00:41:39;;;;;;;2.00;1.10;;;16.10;91.20;;;;;;5028865;28;20886;-49
2022/10/25 00:44:46;;;;;;;1.53;0.70;;;16.10;91.20;;;;;;5029174;28;20432;-49
2022/10/25 00:47:30;;;;;;;1.20;0.83;;;16.10;91.20;;;;;;5033045;28;20538;-49
2022/10/25 00:50:05;;;;;;;1.57;0.60;;;16.10;91.20;;;;;;5058674;28;20490;-49
2022/10/25 00:52:36;;;;;;;1.70;0.80;;;16.10;91.70;;;;;;5031494;28;20969;-49
2022/10/25 00:55:08;;;;;;;2.60;0.87;;;16.10;91.20;;;;;;5028117;28;20474;-49
2022/10/25 00:57:42;;;;;;;1.43;0.80;;;16.10;91.20;;;;;;5074284;28;20495;-49
2022/10/25 01:00:12;;;;;;;1.23;0.70;;;16.10;91.20;;;;;;5033798;28;20553;-49
2022/10/25 01:02:42;;;;;;;1.87;1.40;;;16.10;91.20;;;;;;5057201;28;20471;-49
2022/10/25 01:05:12;;;;;;;2.37;0.97;;;16.10;91.20;;;;;;5069399;28;20465;-48
2022/10/25 01:07:41;;;;;;;2.03;0.93;;;16.10;91.20;;;;;;5071419;28;20921;-48
2022/10/25 01:10:09;;;;;;;1.20;0.60;;;16.10;91.20;;;;;;5053973;28;20548;-48
2022/10/25 01:12:38;;;;;;;1.13;0.80;;;16.10;91.20;;;;;;5054098;28;20479;-47
2022/10/25 01:15:08;;;;;;;1.10;1.00;;;16.10;91.20;;;;;;5050034;28;20476;-49
2022/10/25 01:17:50;;;;;;;1.47;0.80;;;16.10;91.20;;;;;;5024261;28;20458;-48
2022/10/25 01:21:01;;;;;;;1.10;0.80;;;16.10;91.20;;;;;;5015606;28;20479;-49
2022/10/25 01:24:05;;;;;;;1.20;0.80;;;16.10;91.20;;;;;;5052838;28;20564;-49
2022/10/25 01:26:59;;;;;;;2.30;1.10;;;16.10;91.20;;;;;;5022032;28;20879;-49
2022/10/25 01:29:55;;;;;;;2.07;0.80;;;16.10;91.20;;;;;;5031929;28;20924;-49
2022/10/25 01:32:32;;;;;;;1.10;0.93;;;16.10;91.20;;;;;;5027989;28;20456;-49
2022/10/25 01:35:08;;;;;;;1.00;0.70;;;16.10;91.20;;;;;;5042339;28;20475;-49
2022/10/25 01:37:43;;;;;;;1.13;0.93;;;16.10;91.20;;;;;;5065568;28;20440;-48
2022/10/25 01:40:23;;;;;;;2.00;0.80;;;16.10;91.20;;;;;;5033386;28;21101;-49
2022/10/25 01:43:01;;;;;;;1.73;0.70;;;16.10;91.20;;;;;;5032498;28;20479;-49
2022/10/25 01:45:33;;;;;;;1.77;1.00;;;16.10;91.10;;;;;;5031207;28;20468;-49
2022/10/25 01:48:12;;;;;;;1.23;0.70;;;16.10;91.20;;;;;;5043632;28;20877;-48
2022/10/25 01:50:45;;;;;;;1.90;0.67;;;16.10;91.20;;;;;;5035245;28;20479;-49
2022/10/25 01:53:14;;;;;;;1.60;0.73;;;16.10;91.20;;;;;;5072051;28;20913;-49
2022/10/25 01:55:49;;;;;;;2.20;1.00;;;16.10;91.20;;;;;;5059406;28;20471;-48
2022/10/25 01:58:28;;;;;;;1.80;1.03;;;16.10;91.20;;;;;;5056364;28;20481;-48
2022/10/25 02:01:04;;;;;;;1.43;0.70;;;16.10;91.10;;;;;;5117328;22;20824;-73
2022/10/25 02:03:41;;;;;;;1.47;1.10;;;16.10;91.20;;;;;;5007140;28;20425;-74
2022/10/25 02:06:21;;;;;;;3.07;0.80;;;16.10;91.10;;;;;;5011270;28;20441;-74
2022/10/25 02:08:56;;;;;;;1.53;0.73;;;16.10;91.20;;;;;;5009614;28;20551;-72
2022/10/25 02:11:26;;;;;;;2.10;0.90;;;16.10;91.10;;;;;;5012547;28;20870;-73
2022/10/25 02:14:05;;;;;;;1.90;0.77;;;16.10;91.20;;;;;;5011446;28;20502;-74
2022/10/25 02:16:39;;;;;;;2.03;0.70;;;16.10;91.10;;;;;;5009005;28;20459;-74
2022/10/25 02:19:13;;;;;;;2.80;0.90;;;16.10;91.10;;;;;;5010626;28;20461;-74
2022/10/25 02:21:43;;;;;;;1.23;0.60;;;16.00;91.10;;;;;;5011223;28;20555;-72
2022/10/25 02:24:15;;;;;;;1.53;1.43;;;16.10;91.10;;;;;;5010498;28;20456;-74
2022/10/25 02:26:45;;;;;;;1.50;0.60;;;16.10;91.10;;;;;;5009028;28;20449;-74
2022/10/25 02:29:14;;;;;;;1.33;0.80;;;16.00;91.10;;;;;;5027966;28;20538;-74
2022/10/25 02:31:44;;;;;;;0.90;0.60;;;16.10;91.10;;;;;;5023305;28;20441;-74
2022/10/25 02:34:14;;;;;;;4.50;0.93;;;16.00;91.10;;;;;;5017621;28;20468;-73
2022/10/25 02:36:42;;;;;;;1.07;0.80;;;16.00;91.10;;;;;;5030161;28;20434;-74
2022/10/25 02:39:11;;;;;;;1.00;0.70;;;16.00;91.10;;;;;;5030955;28;20480;-73
2022/10/25 02:41:39;;;;;;;1.37;0.90;;;16.00;91.00;;;;;;5042491;28;20544;-74
2022/10/25 02:44:08;;;;;;;1.43;0.70;;;16.00;91.10;;;;;;5010344;28;20503;-72
2022/10/25 02:46:36;;;;;;;1.00;0.60;;;16.00;91.10;;;;;;5019133;28;20921;-74
2022/10/25 02:49:04;;;;;;;1.30;1.20;;;16.10;91.10;;;;;;5030628;28;20456;-74
2022/10/25 02:51:34;;;;;;;1.17;0.70;;;16.00;91.00;;;;;;5039511;28;20448;-73
2022/10/25 02:54:03;;;;;;;1.20;0.80;;;16.00;91.00;;;;;;5029823;28;20463;-75
2022/10/25 02:56:31;;;;;;;2.10;0.70;;;16.00;91.00;;;;;;5030575;28;20460;-73
2022/10/25 02:58:59;;;;;;;1.57;0.87;;;16.00;91.00;;;;;;5039527;28;20495;-74
2022/10/25 03:01:28;;;;;;;1.33;0.90;;;16.00;91.00;;;;;;5008853;28;20864;-73
2022/10/25 03:03:56;;;;;;;2.90;1.17;;;16.00;91.00;;;;;;5007054;28;20483;-74
2022/10/25 03:06:24;;;;;;;2.87;0.70;;;16.00;91.00;;;;;;5024082;28;20514;-74
2022/10/25 03:08:54;;;;;;;1.27;0.73;;;16.00;91.00;;;;;;5007322;28;21006;-73
2022/10/25 03:11:23;;;;;;;3.47;1.23;;;16.00;91.00;;;;;;5024822;28;20484;-74
2022/10/25 03:13:51;;;;;;;3.30;1.20;;;16.00;91.00;;;;;;5009060;28;20441;-71
2022/10/25 03:16:19;;;;;;;1.77;0.90;;;16.00;91.00;;;;;;5006337;28;20429;-75
2022/10/25 03:18:48;;;;;;;1.10;0.73;;;16.00;91.00;;;;;;5008153;28;21116;-73
2022/10/25 03:21:16;;;;;;;1.10;0.83;;;16.00;91.00;;;;;;5007905;28;20864;-72
2022/10/25 03:23:44;;;;;;;2.20;1.00;;;16.00;91.00;;;;;;5007809;28;20460;-74
2022/10/25 03:26:14;;;;;;;2.70;0.80;;;16.00;91.00;;;;;;5003558;28;20452;-72
2022/10/25 03:28:42;;;;;;;1.70;0.77;;;16.00;91.00;;;;;;5008569;28;20453;-73
2022/10/25 03:31:12;;;;;;;1.70;0.80;;;16.00;91.00;;;;;;5005383;28;20439;-73
2022/10/25 03:33:41;;;;;;;1.93;0.73;;;16.00;91.00;;;;;;5007182;28;20425;-73
2022/10/25 03:36:10;;;;;;;3.27;0.90;;;16.00;91.00;;;;;;5007689;28;20464;-74
2022/10/25 03:38:38;;;;;;;0.60;0.50;;;16.00;91.00;;;;;;5010905;28;20477;-73
2022/10/25 03:41:07;;;;;;;0.70;0.60;;;16.00;91.00;;;;;;5027078;28;20448;-74
2022/10/25 03:43:36;;;;;;;2.27;1.10;;;16.00;91.00;;;;;;5027025;28;20499;-73
2022/10/25 03:46:06;;;;;;;1.80;1.03;;;16.00;91.00;;;;;;5027450;28;20776;-73
2022/10/25 03:48:34;;;;;;;1.13;0.80;;;16.00;91.00;;;;;;5027213;28;20839;-74
2022/10/25 03:51:02;;;;;;;1.53;0.90;;;16.00;91.00;;;;;;5043799;28;20584;-74
2022/10/25 03:53:31;;;;;;;1.90;0.60;;;16.00;91.00;;;;;;5026646;28;20424;-72
2022/10/25 03:55:59;;;;;;;1.53;0.70;;;16.00;91.00;;;;;;5022159;28;20499;-73
2022/10/25 03:58:28;;;;;;;1.57;0.80;;;16.00;91.00;;;;;;5024107;28;20491;-73
2022/10/25 04:00:58;;;;;;;2.37;0.90;;;16.00;91.00;;;;;;5021862;28;20429;-74
2022/10/25 04:03:27;;;;;;;0.87;0.63;;;16.00;91.00;;;;;;5007078;28;20547;-73
2022/10/25 04:05:55;;;;;;;0.80;0.80;;;16.00;91.00;;;;;;5025280;28;20482;-74
2022/10/25 04:08:24;;;;;;;0.97;0.70;;;16.00;91.00;;;;;;5027187;28;21021;-75
2022/10/25 04:10:52;;;;;;;3.87;0.80;;;16.00;91.00;;;;;;5027726;28;20494;-73
2022/10/25 04:13:20;;;;;;;1.90;0.60;;;16.00;91.00;;;;;;5027270;28;20543;-73
2022/10/25 04:15:49;;;;;;;0.83;0.63;;;16.00;91.00;;;;;;5006626;28;20457;-74
2022/10/25 04:18:18;;;;;;;0.70;0.53;;;15.90;90.90;;;;;;5006288;28;20559;-74
2022/10/25 04:20:47;;;;;;;1.23;0.80;;;15.90;90.90;;;;;;5027723;28;20552;-73
2022/10/25 04:23:15;;;;;;;1.30;1.00;;;16.00;91.00;;;;;;5027202;28;20467;-73
2022/10/25 04:25:43;;;;;;;1.53;0.83;;;15.90;90.90;;;;;;5024855;28;20546;-74
2022/10/25 04:28:12;;;;;;;1.20;0.70;;;15.90;90.90;;;;;;5026998;28;20510;-74
2022/10/25 04:30:40;;;;;;;1.20;0.80;;;15.90;90.90;;;;;;5006623;28;20460;-72
2022/10/25 04:33:08;;;;;;;6.13;2.03;;;15.90;91.00;;;;;;5006688;28;20532;-75
2022/10/25 04:35:38;;;;;;;1.90;0.70;;;15.90;91.00;;;;;;5006017;28;20528;-74
2022/10/25 04:38:07;;;;;;;0.70;0.70;;;16.00;91.00;;;;;;5006808;28;20496;-75
2022/10/25 04:40:35;;;;;;;1.20;0.60;;;15.90;90.90;;;;;;5015349;28;21070;-73
2022/10/25 04:43:03;;;;;;;1.00;0.80;;;15.90;91.00;;;;;;4991391;28;20469;-74
2022/10/25 04:45:32;;;;;;;1.10;0.97;;;15.90;91.00;;;;;;5027957;28;20552;-74
2022/10/25 04:48:00;;;;;;;1.57;1.00;;;15.90;90.90;;;;;;5009539;28;20531;-74
2022/10/25 04:50:28;;;;;;;0.97;0.80;;;15.90;91.00;;;;;;5010326;28;20507;-72
2022/10/25 04:52:58;;;;;;;1.23;0.90;;;16.00;91.00;;;;;;5009338;28;20483;-74
2022/10/25 04:55:26;;;;;;;1.53;0.80;;;15.90;90.90;;;;;;5008442;28;20462;-74
2022/10/25 04:57:55;;;;;;;0.80;0.70;;;15.90;90.90;;;;;;5027486;28;21038;-72
2022/10/25 05:00:24;;;;;;;0.77;0.70;;;15.90;91.00;;;;;;5025921;28;20492;-72
2022/10/25 05:02:53;;;;;;;1.47;0.90;;;15.90;91.00;;;;;;5006024;28;20480;-74
2022/10/25 05:05:22;;;;;;;0.90;0.57;;;16.00;91.00;;;;;;5004396;28;20465;-73
2022/10/25 05:07:51;;;;;;;3.10;1.00;;;15.90;91.00;;;;;;4992298;28;20477;-74
2022/10/25 05:10:21;;;;;;;1.23;0.73;;;15.90;91.00;;;;;;5006442;28;20505;-74
2022/10/25 05:12:49;;;;;;;1.20;0.90;;;15.90;91.00;;;;;;5004542;28;20962;-73
2022/10/25 05:15:17;;;;;;;1.33;0.70;;;15.90;91.10;;;;;;5008948;28;20473;-74
2022/10/25 05:17:46;;;;;;;1.37;0.80;;;15.90;91.10;;;;;;5022852;28;20875;-74
2022/10/25 05:20:14;;;;;;;1.27;0.70;;;15.90;91.00;;;;;;5024197;28;20502;-74
2022/10/25 05:22:42;;;;;;;2.00;0.80;;;15.90;91.10;;;;;;5010442;28;20884;-72
2022/10/25 05:25:11;;;;;;;1.73;0.73;;;15.90;91.10;;;;;;5007431;28;21033;-72
2022/10/25 05:27:41;;;;;;;1.27;0.80;;;15.90;91.20;;;;;;5010468;28;20457;-74
2022/10/25 05:30:11;;;;;;;0.70;0.60;;;15.90;91.10;;;;;;5009498;28;20511;-74
2022/10/25 05:32:39;;;;;;;2.40;0.80;;;15.90;91.20;;;;;;5008196;28;20541;-73
2022/10/25 05:35:08;;;;;;;1.60;1.23;;;15.90;91.10;;;;;;5036108;28;20487;-74
2022/10/25 05:37:36;;;;;;;1.13;0.70;;;15.90;91.20;;;;;;5009642;28;20437;-73
2022/10/25 05:40:05;;;;;;;2.17;1.20;;;15.90;91.20;;;;;;5010169;28;20984;-73
2022/10/25 05:42:34;;;;;;;1.00;0.90;;;15.90;91.10;;;;;;5008729;28;20676;-74
2022/10/25 05:45:04;;;;;;;1.37;1.00;;;15.90;91.10;;;;;;5009577;28;20628;-73
2022/10/25 05:47:32;;;;;;;1.70;0.90;;;15.90;91.20;;;;;;5008278;28;20495;-73
2022/10/25 05:50:01;;;;;;;1.23;0.83;;;15.90;91.10;;;;;;5023205;28;20463;-72
2022/10/25 05:52:29;;;;;;;1.03;0.70;;;15.90;91.30;;;;;;5028086;28;20943;-73
2022/10/25 05:54:57;;;;;;;1.13;0.63;;;15.90;91.20;;;;;;5025833;28;21016;-72
2022/10/25 05:57:26;;;;;;;1.03;0.60;;;15.90;91.20;;;;;;5011182;28;20804;-73
2022/10/25 05:59:54;;;;;;;2.43;0.90;;;15.90;91.20;;;;;;5025534;28;20542;-73
2022/10/25 06:02:24;;;;;;;1.00;0.73;;;15.90;91.20;;;;;;5007688;28;20539;-74
2022/10/25 06:04:53;;;;;;;1.20;0.70;;;15.90;91.20;;;;;;5008928;28;20469;-71
2022/10/25 06:07:21;;;;;;;3.63;0.93;;;15.80;91.10;;;;;;5009429;28;20441;-73
2022/10/25 06:09:50;;;;;;;1.30;0.90;;;15.80;91.10;;;;;;5007648;28;20481;-73
2022/10/25 06:12:19;;;;;;;1.00;0.60;;;15.80;91.10;;;;;;5009296;28;20437;-73
2022/10/25 06:14:47;;;;;;;1.20;1.00;;;15.90;91.20;;;;;;5033467;28;20490;-72
2022/10/25 06:17:16;;;;;;;2.03;0.70;;;15.90;91.20;;;;;;5034562;28;20790;-72
2022/10/25 06:19:46;;;;;;;0.90;0.70;;;15.90;91.20;;;;;;5016532;28;20763;-74
2022/10/25 06:22:15;;;;;;;0.90;0.80;;;15.80;91.20;;;;;;5026123;28;20444;-72
2022/10/25 06:24:44;;;;;;;0.90;0.70;;;15.90;91.10;;;;;;5028098;28;20779;-73
2022/10/25 06:27:13;;;;;;;1.27;0.87;;;15.80;91.20;;;;;;5017909;28;20794;-74
2022/10/25 06:29:42;;;;;;;0.90;0.70;;;15.90;91.20;;;;;;5037107;28;20503;-72
2022/10/25 06:32:11;;;;;;;1.03;0.70;;;15.80;91.10;;;;;;5026178;28;20501;-72
2022/10/25 06:34:40;;;;;;;1.23;0.70;;;15.90;91.20;;;;;;5037630;28;20452;-73
2022/10/25 06:37:10;;;;;;;1.73;0.77;;;15.80;91.10;;;;;;5044101;28;20519;-73
2022/10/25 06:39:38;;;;;;;0.60;0.60;;;15.80;91.10;;;;;;5026730;28;20869;-72
2022/10/25 06:42:07;;;;;;;1.53;0.50;;;15.90;91.10;;;;;;5026250;28;20436;-73
2022/10/25 06:44:35;;;;;;;1.87;1.00;;;15.80;91.10;;;;;;5027143;28;20507;-72
2022/10/25 06:47:04;;;;;;;1.47;0.93;;;15.90;91.10;;;;;;5028035;28;20497;-72
2022/10/25 06:49:45;;;;;;;2.83;1.10;;;15.90;91.20;;;;;;5026508;28;20475;-74
2022/10/25 06:52:18;;;;;;;1.00;0.70;;;15.80;91.10;;;;;;5029095;28;20424;-72
2022/10/25 06:54:47;;;;;;;1.80;0.70;;;15.80;91.10;;;;;;5025521;28;20491;-73
2022/10/25 06:57:15;;;;;;;2.30;0.60;;;15.80;91.10;;;;;;5039112;28;20432;-72
2022/10/25 06:59:45;;;;;;;1.57;0.70;;;15.80;91.10;;;;;;5027295;28;20475;-72
2022/10/25 07:02:13;;;;;;;2.10;0.80;;;15.80;91.10;;;;;;5027920;28;20879;-72
2022/10/25 07:04:42;;;;;;;3.90;0.80;;;15.80;91.10;;;;;;5026566;28;20533;-73
2022/10/25 07:07:13;;;;;;;1.83;0.80;;;15.80;91.10;;;;;;5028782;28;20528;-73
2022/10/25 07:09:44;;;;;;;1.37;0.83;;;15.80;91.10;;;;;;5026281;28;20472;-74
2022/10/25 07:12:12;;;;;;;1.60;0.93;;;15.80;91.10;;;;;;5021954;28;20448;-74
2022/10/25 07:14:43;;;;;;;1.67;0.80;;;15.80;91.00;;;;;;5043625;28;20953;-74
2022/10/25 07:17:12;;;;;;;1.30;0.57;;;15.80;91.10;;;;;;5027039;28;20440;-73
2022/10/25 07:19:44;;;;;;;2.40;0.80;;;15.80;91.10;;;;;;5026564;28;20975;-73
2022/10/25 07:22:12;;;;;;;0.90;0.90;;;15.80;91.00;;;;;;5010233;28;20435;-72
2022/10/25 07:24:42;;;;;;;1.50;0.77;;;15.80;91.10;;;;;;5023928;28;20479;-73
2022/10/25 07:27:11;;;;;;;0.60;0.50;;;15.80;91.00;;;;;;5027856;28;20815;-72
2022/10/25 07:29:40;;;;;;;1.70;0.80;;;15.80;91.00;;;;;;5028119;28;20476;-74
2022/10/25 07:32:09;;;;;;;1.10;0.70;;;15.80;91.00;;;;;;5026708;28;20870;-73
2022/10/25 07:34:37;;;;;;;0.97;0.57;;;15.80;91.00;;;;;;5025593;28;20468;-72
2022/10/25 07:37:06;;;;;;;1.73;0.60;;;15.80;91.00;;;;;;5027814;28;20480;-72
2022/10/25 07:39:34;;;;;;;1.03;0.80;;;15.80;91.00;;;;;;5043270;28;20554;-73
2022/10/25 07:42:04;;;;;;;0.60;0.50;;;15.80;91.00;;;;;;5025439;28;20444;-73
2022/10/25 07:44:33;;;;;;;1.57;0.80;;;15.80;91.00;;;;;;5025753;28;20451;-72
2022/10/25 07:47:01;;;;;;;1.80;0.70;;;15.80;91.00;;;;;;5039038;28;20536;-74
2022/10/25 07:49:30;;;;;;;2.63;0.90;;;15.80;91.00;;;;;;5006248;28;20508;-72
2022/10/25 07:51:58;;;;;;;0.97;0.70;;;15.80;90.90;;;;;;5009450;28;20531;-73
2022/10/25 07:54:26;;;;;;;1.13;0.50;;;15.80;90.90;;;;;;5027854;28;20460;-72
2022/10/25 07:56:55;;;;;;;0.60;0.60;;;15.80;90.90;;;;;;5025362;28;20946;-71
2022/10/25 07:59:25;;;;;;;0.93;0.60;;;15.80;90.90;;;;;;5042809;28;20466;-72
2022/10/25 08:01:53;;;;;;;2.43;0.67;;;15.80;90.90;;;;;;5062890;22;20534;-50
2022/10/25 08:04:22;;;;;;;2.10;0.70;;;15.80;90.90;;;;;;5027951;28;20455;-49
2022/10/25 08:06:50;;;;;;;1.63;0.57;;;15.80;91.40;;;;;;5023707;28;20435;-48
2022/10/25 08:09:19;;;;;;;0.70;0.60;;;15.80;90.90;;;;;;5039503;28;20563;-48
2022/10/25 08:12:05;;;;;;;0.70;0.70;;;15.80;90.90;;;;;;5060000;28;20470;-48
2022/10/25 08:14:35;;;;;;;1.20;0.67;;;15.80;90.90;;;;;;5049879;28;20439;-47
2022/10/25 08:17:10;;;;;;;0.60;0.50;;;15.80;90.90;;;;;;5031127;28;20447;-48
2022/10/25 08:19:38;;;;;;;0.63;0.50;;;15.80;90.90;;;;;;5032173;28;21013;-48
2022/10/25 08:22:07;;;;;;;0.60;0.60;;;15.80;90.90;;;;;;5048539;28;20454;-47
2022/10/25 08:24:37;;;;;;;1.53;0.80;;;15.80;91.00;;;;;;5027622;28;20452;-49
2022/10/25 08:27:06;;;;;;;2.60;0.80;;;15.80;91.60;;;;;;5048392;28;20497;-48
2022/10/25 08:29:36;;;;;;;1.53;1.33;;;15.80;91.40;;;;;;5055202;28;20467;-48
2022/10/25 08:32:05;;;;;;;0.63;0.53;;;15.80;91.40;;;;;;5008832;28;20461;-48
2022/10/25 08:34:34;;;;;;;1.17;0.50;;;15.80;91.30;;;;;;5009701;28;20479;-49
2022/10/25 08:37:06;;;;;;;1.60;0.90;;;15.80;91.30;;;;;;4993565;28;20449;-47
2022/10/25 08:39:37;;;;;;;1.73;0.67;;;15.80;91.20;;;;;;5010799;28;20484;-48
2022/10/25 08:42:06;;;;;;;0.73;0.50;;;15.80;91.20;;;;;;4993686;28;20547;-48
2022/10/25 08:44:45;;;;;;;1.67;1.30;;;15.80;91.20;;;;;;5005720;28;20442;-49
2022/10/25 08:47:20;;;;;;;1.93;0.77;;;15.80;91.20;;;;;;5004120;28;20970;-48
2022/10/25 08:49:55;;;;;;;2.37;0.87;;;15.80;91.20;;;;;;4996775;28;20471;-49
2022/10/25 08:52:30;;;;;;;1.37;0.60;;;15.80;91.20;;;;;;5029557;28;20867;-48
2022/10/25 08:55:01;;;;;;;1.73;0.63;;;15.80;91.20;;;;;;5032910;28;20479;-49
2022/10/25 08:57:38;;;;;;;1.20;0.73;;;15.80;91.10;;;;;;5047718;28;20438;-48
2022/10/25 09:00:16;;;;;;;1.10;0.83;;;15.80;91.10;;;;;;5047969;28;20558;-48
2022/10/25 09:02:51;;;;;;;1.33;0.50;;;15.80;91.10;;;;;;5037631;28;20472;-48
2022/10/25 09:05:34;;;;;;;1.53;0.80;;;15.80;91.10;;;;;;5033501;28;20474;-48
2022/10/25 09:08:24;;;;;;;2.43;0.60;;;15.80;91.10;;;;;;5048016;28;20427;-48
2022/10/25 09:10:59;;;;;;;0.83;0.73;;;15.80;91.10;;;;;;5040224;28;21004;-48
2022/10/25 09:13:40;;;;;;;1.10;0.80;;;15.90;91.10;;;;;;5048381;28;20597;-48
2022/10/25 09:16:18;;;;;;;1.97;0.80;;;15.90;91.10;;;;;;5031314;28;20438;-49
2022/10/25 09:18:56;;;;;;;0.73;0.40;;;15.90;91.00;;;;;;5030967;28;20442;-48
2022/10/25 09:21:34;;;;;;;1.30;0.63;;;15.80;91.00;;;;;;5041314;28;20984;-49
2022/10/25 09:24:08;;;;;;;1.23;0.67;;;15.90;91.00;;;;;;5047928;28;20557;-48
2022/10/25 09:26:43;;;;;;;1.73;0.80;;;15.80;91.00;;;;;;5048408;28;20454;-48
2022/10/25 09:29:21;;;;;;;2.60;0.50;;;15.80;90.90;;;;;;5051433;28;20517;-48
2022/10/25 09:31:58;;;;;;;1.27;1.10;;;15.80;90.90;;;;;;5046330;28;21024;-48
2022/10/25 09:34:32;;;;;;;0.70;0.70;;;15.80;90.90;;;;;;5044656;28;20463;-48
2022/10/25 09:37:14;;;;;;;1.87;0.90;;;15.90;90.90;;;;;;5051403;28;20447;-48
2022/10/25 09:39:46;;;;;;;0.80;0.60;;;15.90;91.00;;;;;;5051073;28;20811;-48
2022/10/25 09:42:20;;;;;;;0.97;0.60;;;15.90;90.90;;;;;;5043238;28;20468;-49
2022/10/25 09:44:52;;;;;;;3.00;0.90;;;15.90;90.90;;;;;;5026740;28;20532;-48
2022/10/25 09:47:41;;;;;;;1.30;1.00;;;15.90;90.90;;;;;;5071476;28;20462;-49
2022/10/25 09:50:16;;;;;;;0.50;0.40;;;15.80;90.90;;;;;;5054782;28;20470;-48
2022/10/25 09:52:53;;;;;;;1.47;1.20;;;15.90;90.90;;;;;;5052225;28;20449;-48
2022/10/25 09:55:34;;;;;;;1.90;0.70;;;15.80;90.90;;;;;;5039333;28;20470;-48
2022/10/25 09:58:03;;;;;;;0.97;0.83;;;15.80;90.90;;;;;;5053206;28;20434;-48
2022/10/25 10:00:37;;;;;;;1.40;0.70;;;15.80;90.90;;;;;;5070546;28;20466;-48
2022/10/25 10:03:12;;;;;;;1.00;0.60;;;15.80;90.90;;;;;;5049762;28;20525;-48
2022/10/25 10:05:46;;;;;;;1.33;0.70;;;15.80;90.90;;;;;;5053982;28;20489;-48
2022/10/25 10:08:15;;;;;;;0.80;0.70;;;15.80;90.90;;;;;;5054479;28;20440;-48
2022/10/25 10:10:47;;;;;;;4.20;0.90;;;15.90;90.90;;;;;;5051934;28;20536;-48
2022/10/25 10:13:23;;;;;;;0.63;0.53;;;15.80;91.00;;;;;;5052789;28;20427;-48
2022/10/25 10:15:56;;;;;;;0.83;0.60;;;15.80;90.90;;;;;;5052990;28;20823;-48
2022/10/25 10:18:29;;;;;;;1.07;0.90;;;15.90;90.90;;;;;;5045187;28;20521;-48
2022/10/25 10:21:07;;;;;;;1.47;0.57;;;15.80;90.90;;;;;;5053688;28;20473;-48
2022/10/25 10:23:48;;;;;;;1.20;0.73;;;15.90;90.90;;;;;;5052105;28;20963;-48
2022/10/25 10:26:24;;;;;;;1.00;0.80;;;15.80;90.90;;;;;;5061119;28;20446;-48
2022/10/25 10:29:03;;;;;;;1.03;0.70;;;15.80;90.90;;;;;;5071676;28;20464;-48
2022/10/25 10:31:38;;;;;;;0.60;0.53;;;15.80;90.90;;;;;;5070652;28;20463;-49
2022/10/25 10:34:24;;;;;;;0.80;0.80;;;15.80;90.90;;;;;;5071856;28;20492;-48
2022/10/25 10:37:03;;;;;;;1.30;0.70;;;15.80;90.90;;;;;;5071312;28;20436;-48
2022/10/25 10:39:32;;;;;;;1.27;0.60;;;15.80;90.90;;;;;;5053177;28;21145;-48
2022/10/25 10:42:11;;;;;;;1.17;0.67;;;15.80;90.90;;;;;;5067831;28;21061;-48
2022/10/25 10:45:01;;;;;;;1.40;0.77;;;15.80;90.90;;;;;;5050508;28;21003;-48
2022/10/25 10:47:34;;;;;;;1.00;0.60;;;15.80;90.90;;;;;;5052945;28;20490;-48
2022/10/25 10:50:12;;;;;;;0.77;0.60;;;15.80;90.90;;;;;;5051717;28;20448;-48
2022/10/25 10:52:42;;;;;;;1.10;0.63;;;15.80;90.90;;;;;;5051234;28;20447;-48
2022/10/25 10:55:18;;;;;;;0.90;0.50;;;15.80;90.90;;;;;;5050468;28;20465;-48
2022/10/25 10:57:47;;;;;;;1.83;0.80;;;15.80;90.90;;;;;;5049140;28;20442;-48
2022/10/25 11:00:22;;;;;;;1.33;0.67;;;15.80;90.90;;;;;;5053346;28;20468;-48
2022/10/25 11:02:51;;;;;;;1.00;0.60;;;15.80;90.90;;;;;;5039099;28;20557;-47
2022/10/25 11:05:25;;;;;;;1.40;1.00;;;15.80;90.90;;;;;;5051248;28;20521;-48
2022/10/25 11:07:59;;;;;;;0.90;0.70;;;15.80;90.90;;;;;;5042095;28;20497;-48
2022/10/25 11:10:30;;;;;;;2.50;0.67;;;15.80;90.90;;;;;;5048967;28;20482;-48
2022/10/25 11:13:07;;;;;;;1.43;0.50;;;15.80;90.90;;;;;;5068984;28;20446;-48
2022/10/25 11:15:56;;;;;;;1.57;0.57;;;15.80;90.80;;;;;;5067642;28;20988;-48
2022/10/25 11:18:36;;;;;;;1.40;0.53;;;15.80;90.90;;;;;;5042516;28;20458;-48
2022/10/25 11:21:12;;;;;;;4.47;0.87;;;15.80;90.90;;;;;;5053375;28;20469;-48
2022/10/25 11:23:54;;;;;;;1.63;0.63;;;15.80;90.80;;;;;;5069651;28;20526;-48
2022/10/25 11:26:32;;;;;;;1.53;0.77;;;15.80;90.80;;;;;;5049640;28;20868;-48
2022/10/25 11:29:09;;;;;;;1.13;0.70;;;15.80;90.80;;;;;;5049881;28;20461;-49
2022/10/25 11:31:52;;;;;;;2.03;0.87;;;15.80;90.90;;;;;;5079736;28;21086;-47
2022/10/25 11:34:29;;;;;;;1.10;0.80;;;15.80;90.80;;;;;;5059837;28;20940;-48
2022/10/25 11:37:13;;;;;;;1.60;0.77;;;15.80;90.80;;;;;;5042862;28;20427;-48
2022/10/25 11:39:50;;;;;;;0.60;0.60;;;15.80;90.80;;;;;;5056602;28;20391;-48
2022/10/25 11:42:48;;;;;;;0.70;0.67;;;15.80;90.90;;;;;;5053729;28;20223;-48
2022/10/25 11:45:39;;;;;;;0.70;0.50;;;15.80;90.80;;;;;;5040298;28;20507;-48
2022/10/25 11:48:33;;;;;;;3.73;0.80;;;15.80;90.80;;;;;;5037026;28;20482;-48
2022/10/25 11:51:09;;;;;;;2.67;0.77;;;15.80;90.70;;;;;;5049329;28;20459;-48
2022/10/25 11:54:09;;;;;;;0.70;0.60;;;15.80;90.80;;;;;;5033431;28;20427;-47
2022/10/25 11:56:46;;;;;;;2.23;1.00;;;15.80;90.70;;;;;;5036664;28;20480;-48
2022/10/25 11:59:20;;;;;;;1.10;0.63;;;15.80;90.70;;;;;;5052752;28;20474;-47
2022/10/25 12:02:03;;;;;;;1.80;0.90;;;15.80;90.70;;;;;;5048077;28;20475;-48
2022/10/25 12:04:48;;;;;;;1.23;0.50;;;15.80;90.70;;;;;;5073771;28;20529;-48
2022/10/25 12:07:23;;;;;;;0.87;0.70;;;15.80;90.70;;;;;;5068647;28;20468;-48
2022/10/25 12:10:03;;;;;;;0.73;0.50;;;15.80;90.70;;;;;;5052491;28;20464;-48
2022/10/25 12:12:40;;;;;;;0.90;0.67;;;15.80;90.70;;;;;;5052296;28;20494;-48
2022/10/25 12:15:17;;;;;;;1.17;0.60;;;15.80;90.70;;;;;;5052438;28;20466;-49
2022/10/25 12:17:45;;;;;;;1.00;0.80;;;15.80;90.70;;;;;;5050072;28;20434;-48
2022/10/25 12:20:21;;;;;;;0.70;0.60;;;15.80;90.70;;;;;;5066752;28;20461;-48
2022/10/25 12:22:51;;;;;;;1.00;0.77;;;15.80;90.70;;;;;;5068368;28;20877;-48
2022/10/25 12:25:26;;;;;;;0.90;0.53;;;15.80;90.70;;;;;;5045977;28;21022;-48
2022/10/25 12:28:03;;;;;;;1.10;0.53;;;15.80;90.70;;;;;;5052342;28;20476;-49
2022/10/25 12:30:34;;;;;;;1.57;1.30;;;15.80;90.70;;;;;;5049129;28;20466;-48
2022/10/25 12:33:10;;;;;;;3.27;0.70;;;15.80;90.70;;;;;;5044251;28;20947;-48
2022/10/25 12:35:46;;;;;;;1.80;0.80;;;15.80;90.70;;;;;;5051891;28;20542;-48
2022/10/25 12:38:20;;;;;;;0.90;0.63;;;15.80;90.70;;;;;;5051449;28;20430;-48
2022/10/25 12:40:54;;;;;;;0.90;0.70;;;15.80;90.70;;;;;;5039360;28;21402;-48
2022/10/25 12:43:31;;;;;;;1.00;0.80;;;15.80;90.70;;;;;;5052243;28;20944;-48
2022/10/25 12:46:26;;;;;;;1.03;0.80;;;15.80;90.70;;;;;;5064264;28;20599;-48
2022/10/25 12:49:16;;;;;;;1.30;0.60;;;15.80;90.70;;;;;;5004081;28;20961;-48
2022/10/25 12:51:58;;;;;;;1.20;0.63;;;15.80;90.70;;;;;;5058116;28;20450;-48
2022/10/25 12:54:58;;;;;;;0.97;0.73;;;15.80;90.70;;;;;;5062706;28;20431;-48
2022/10/25 12:57:35;;;;;;;0.80;0.40;;;15.80;90.70;;;;;;5059596;28;20445;-48
2022/10/25 13:00:10;;;;;;;0.60;0.50;;;15.80;90.70;;;;;;5050964;28;20465;-48
2022/10/25 13:03:05;;;;;;;1.00;0.53;;;15.80;90.70;;;;;;5042199;28;20985;-48
2022/10/25 13:06:09;;;;;;;0.73;0.67;;;15.80;90.70;;;;;;5064857;28;20466;-48
2022/10/25 13:08:39;;;;;;;1.23;0.70;;;15.80;90.70;;;;;;5053685;28;20996;-48
2022/10/25 13:11:09;;;;;;;1.33;0.60;;;15.80;90.70;;;;;;5048093;28;20463;-48
2022/10/25 13:13:40;;;;;;;0.97;0.40;;;15.80;90.70;;;;;;5053377;28;20495;-49
2022/10/25 13:16:10;;;;;;;1.07;0.60;;;15.80;90.70;;;;;;5054089;28;20517;-49
2022/10/25 13:18:42;;;;;;;1.20;0.63;;;15.80;90.70;;;;;;5043076;28;20428;-49